Terminal Aerodrome Forecast
Issued by NWS Glasgow, MT

Home | Current Version | Previous Version | Text Only | Print | Product List | Glossary On
Versions: 1 2 3 4 5 6 7 8 9 10 11 12 13
000
FTUS45 KGGW 181100
TAFGGW
TAF
KGGW 181129Z 1812/1912 10018KT P6SM BKN090
     FM181500 11015KT P6SM VCSH SCT050 OVC070
     FM181700 22011KT P6SM -SHRA SCT030 OVC050
     FM182000 27017KT P6SM BKN070
     FM190000 28014KT P6SM SCT100=

USA.gov is the U.S. government's official web portal to all federal, state and local government web resources and services.